createdAt,value
2024-05-09T00:01:44.092Z,12.00
2024-05-09T00:04:29.319Z,12.80
2024-05-09T00:07:14.644Z,13.00
2024-05-09T00:10:00.093Z,12.32
2024-05-09T00:12:45.505Z,12.05
2024-05-09T00:15:31.006Z,12.15
2024-05-09T00:18:16.500Z,12.80
2024-05-09T00:21:04.964Z,12.45
2024-05-09T00:23:50.467Z,12.90
2024-05-09T00:26:35.820Z,13.45
2024-05-09T00:29:21.757Z,14.02
2024-05-09T00:32:07.412Z,13.30
2024-05-09T00:34:52.553Z,12.82
2024-05-09T00:37:37.910Z,11.77
2024-05-09T00:40:31.134Z,12.98
2024-05-09T00:43:23.877Z,14.02
2024-05-09T00:46:10.074Z,12.98
2024-05-09T00:48:55.727Z,12.18
2024-05-09T00:51:42.104Z,13.07
2024-05-09T00:54:28.753Z,13.50
2024-05-09T00:57:14.179Z,13.88
2024-05-09T01:00:00.175Z,13.23
2024-05-09T01:02:45.381Z,12.48
2024-05-09T01:05:30.949Z,12.65
2024-05-09T01:08:16.314Z,12.43
2024-05-09T01:11:01.919Z,12.00
2024-05-09T01:13:47.724Z,12.43
2024-05-09T01:16:33.159Z,12.93
2024-05-09T01:19:28.583Z,13.45
2024-05-09T01:22:14.013Z,13.32
2024-05-09T01:24:59.518Z,15.43
2024-05-09T01:27:44.919Z,15.95
2024-05-09T01:30:34.976Z,14.93
2024-05-09T01:33:22.631Z,15.80
2024-05-09T01:36:07.789Z,16.55
2024-05-09T01:38:53.210Z,14.93
2024-05-09T01:41:38.791Z,14.05
2024-05-09T01:44:24.267Z,13.80
2024-05-09T01:47:09.907Z,13.85
2024-05-09T01:49:55.235Z,14.15
2024-05-09T01:52:40.645Z,14.50
2024-05-09T01:55:26.097Z,15.65
2024-05-09T01:58:11.659Z,16.38
2024-05-09T02:00:57.137Z,16.70
2024-05-09T02:03:45.184Z,18.13
2024-05-09T02:06:30.740Z,16.75
2024-05-09T02:09:16.181Z,16.48
2024-05-09T02:12:01.652Z,16.50
2024-05-09T02:14:46.794Z,16.33
2024-05-09T02:17:32.067Z,17.20
2024-05-09T02:20:26.753Z,17.65
2024-05-09T02:23:15.426Z,19.20
2024-05-09T02:26:00.657Z,20.50
2024-05-09T02:28:46.196Z,17.00
2024-05-09T02:31:31.445Z,17.27
2024-05-09T02:34:16.889Z,16.48
2024-05-09T02:37:02.089Z,16.70
2024-05-09T02:39:47.570Z,16.83
2024-05-09T02:42:33.023Z,16.35
2024-05-09T02:45:18.435Z,18.00
2024-05-09T02:48:04.539Z,16.63
2024-05-09T02:50:49.983Z,19.17
2024-05-09T02:53:35.553Z,18.70
2024-05-09T02:56:21.394Z,20.60
2024-05-09T02:59:06.775Z,19.98
2024-05-09T03:01:52.138Z,19.17
2024-05-09T03:04:38.790Z,20.10
2024-05-09T03:07:23.998Z,16.75
2024-05-09T03:10:18.233Z,18.40
2024-05-09T03:13:07.552Z,20.45
2024-05-09T03:15:52.689Z,17.10
2024-05-09T03:18:38.748Z,15.68
2024-05-09T03:21:24.236Z,18.13
2024-05-09T03:24:11.096Z,17.73
2024-05-09T03:26:56.568Z,16.08
2024-05-09T03:29:42.165Z,17.80
2024-05-09T03:32:27.778Z,18.53
2024-05-09T03:35:13.393Z,18.27
2024-05-09T03:37:58.729Z,18.05
2024-05-09T03:40:49.934Z,18.03
2024-05-09T03:43:35.756Z,17.40
2024-05-09T03:46:21.133Z,20.50
2024-05-09T03:49:06.483Z,19.50
2024-05-09T03:51:51.849Z,18.15
2024-05-09T03:54:44.945Z,18.48
2024-05-09T03:57:29.959Z,17.33
2024-05-09T04:00:22.083Z,19.92
2024-05-09T04:03:13.202Z,20.35
2024-05-09T04:05:58.927Z,21.83
2024-05-09T04:08:44.383Z,20.80
2024-05-09T04:11:29.711Z,20.70
2024-05-09T04:14:15.135Z,20.17
2024-05-09T04:17:00.484Z,18.80
2024-05-09T04:19:46.088Z,18.30
2024-05-09T04:22:31.418Z,18.03
2024-05-09T04:25:16.897Z,19.00
2024-05-09T04:28:02.643Z,18.30
2024-05-09T04:30:47.823Z,19.30
2024-05-09T04:33:33.394Z,19.83
2024-05-09T04:36:18.667Z,19.15
2024-05-09T04:39:04.281Z,18.83
2024-05-09T04:41:49.777Z,19.27
2024-05-09T04:44:34.944Z,19.13
2024-05-09T04:47:21.092Z,17.95
2024-05-09T04:50:11.388Z,17.50
2024-05-09T04:52:56.728Z,18.35
2024-05-09T04:55:42.140Z,17.85
2024-05-09T04:58:27.453Z,17.40
2024-05-09T05:01:12.816Z,18.23
2024-05-09T05:03:58.920Z,18.08
2024-05-09T05:06:44.230Z,18.58
2024-05-09T05:09:29.842Z,18.13
2024-05-09T05:12:15.534Z,18.38
2024-05-09T05:15:00.976Z,17.48
2024-05-09T05:17:46.705Z,16.98
2024-05-09T05:20:33.826Z,16.35
2024-05-09T05:23:21.183Z,15.60
2024-05-09T05:26:06.772Z,15.48
2024-05-09T05:28:52.122Z,15.68
2024-05-09T05:31:37.595Z,15.98
2024-05-09T05:34:22.850Z,16.45
2024-05-09T05:37:08.458Z,15.70
2024-05-09T05:39:53.890Z,15.15
2024-05-09T05:42:39.277Z,15.70
2024-05-09T05:45:24.513Z,14.95
2024-05-09T05:48:10.121Z,14.43
2024-05-09T05:50:55.271Z,13.57
2024-05-09T05:53:40.548Z,12.85
2024-05-09T05:56:26.396Z,12.02
2024-05-09T05:59:14.069Z,12.07
2024-05-09T06:02:00.497Z,11.68
2024-05-09T06:04:46.132Z,11.20
2024-05-09T06:07:31.560Z,11.98
2024-05-09T06:10:21.520Z,11.18
2024-05-09T06:13:13.124Z,11.52
2024-05-09T06:15:58.860Z,11.15
2024-05-09T06:18:44.431Z,10.85
2024-05-09T06:21:29.761Z,10.82
2024-05-09T06:24:15.173Z,10.80
2024-05-09T06:27:00.469Z,10.75
2024-05-09T06:29:45.733Z,11.00
2024-05-09T06:32:31.538Z,10.30
2024-05-09T06:35:16.752Z,10.35
2024-05-09T06:38:02.265Z,11.48
2024-05-09T06:40:47.923Z,10.68
2024-05-09T06:43:33.477Z,11.00
2024-05-09T06:46:19.032Z,10.20
2024-05-09T06:49:04.647Z,10.80
2024-05-09T06:51:50.255Z,10.88
2024-05-09T06:54:35.552Z,10.80
2024-05-09T06:57:20.968Z,10.77
2024-05-09T07:00:10.302Z,10.95
2024-05-09T07:03:00.120Z,11.20
2024-05-09T07:05:48.345Z,10.55
2024-05-09T07:08:34.768Z,10.18
2024-05-09T07:11:20.236Z,10.07
2024-05-09T07:14:06.586Z,10.90
2024-05-09T07:16:51.622Z,10.50
2024-05-09T07:19:37.278Z,10.73
2024-05-09T07:22:22.696Z,11.27
2024-05-09T07:25:08.208Z,10.45
2024-05-09T07:27:53.588Z,11.02
2024-05-09T07:30:39.157Z,10.35
2024-05-09T07:33:25.037Z,10.57
2024-05-09T07:36:10.555Z,10.43
2024-05-09T07:38:56.039Z,10.60
2024-05-09T07:41:41.446Z,11.65
2024-05-09T07:44:27.043Z,11.77
2024-05-09T07:48:27.669Z,10.30
2024-05-09T07:53:36.357Z,11.35
2024-05-09T07:56:12.161Z,10.02
2024-05-09T07:58:57.766Z,9.55
2024-05-09T08:01:43.390Z,10.30
2024-05-09T08:04:28.730Z,9.45
2024-05-09T08:07:14.036Z,9.75
2024-05-09T08:09:59.526Z,10.00
2024-05-09T08:12:44.992Z,9.43
2024-05-09T08:15:30.666Z,9.35
2024-05-09T08:18:16.316Z,9.80
2024-05-09T08:21:01.638Z,9.95
2024-05-09T08:23:47.024Z,9.70
2024-05-09T08:26:32.495Z,10.43
2024-05-09T08:29:17.785Z,10.68
2024-05-09T08:32:03.616Z,10.48
2024-05-09T08:34:48.968Z,10.02
2024-05-09T08:37:38.735Z,9.55
2024-05-09T08:40:33.303Z,10.18
2024-05-09T08:43:24.008Z,9.20
2024-05-09T08:46:11.164Z,9.18
2024-05-09T08:48:57.337Z,8.93
2024-05-09T08:51:43.435Z,7.28
2024-05-09T08:54:30.323Z,7.78
2024-05-09T08:57:16.184Z,8.07
2024-05-09T09:00:07.910Z,8.45
2024-05-09T09:02:56.030Z,8.73
2024-05-09T09:05:46.206Z,8.60
2024-05-09T09:08:31.884Z,8.15
2024-05-09T09:11:16.970Z,8.25
2024-05-09T09:14:02.282Z,7.72
2024-05-09T09:16:47.709Z,7.90
2024-05-09T09:19:32.994Z,7.10
2024-05-09T09:22:18.405Z,6.88
2024-05-09T09:25:03.981Z,6.93
2024-05-09T09:27:49.433Z,7.43
2024-05-09T09:30:37.790Z,23.17
2024-05-09T09:33:23.895Z,6.78
2024-05-09T09:36:11.551Z,7.53
2024-05-09T09:38:57.624Z,6.82
2024-05-09T09:41:45.189Z,6.88
2024-05-09T09:44:34.171Z,6.88
2024-05-09T09:47:20.620Z,6.75
2024-05-09T09:50:12.056Z,7.53
2024-05-09T09:53:00.774Z,6.95
2024-05-09T09:55:46.359Z,7.15
2024-05-09T09:58:32.766Z,7.55
2024-05-09T10:01:18.000Z,6.95
2024-05-09T10:04:03.732Z,6.55
2024-05-09T10:06:52.140Z,6.22
2024-05-09T10:09:37.122Z,7.03
2024-05-09T10:12:22.697Z,7.05
2024-05-09T10:15:08.433Z,7.82
2024-05-09T10:17:53.556Z,7.60
2024-05-09T10:20:43.100Z,7.50
2024-05-09T10:23:30.506Z,7.40
2024-05-09T10:26:15.629Z,8.18
2024-05-09T10:29:21.597Z,8.27
2024-05-09T10:32:08.495Z,7.65
2024-05-09T10:35:11.693Z,7.90
2024-05-09T10:38:03.136Z,7.40
2024-05-09T10:40:56.471Z,7.05
2024-05-09T10:43:42.106Z,6.55
2024-05-09T10:46:27.547Z,7.50
2024-05-09T10:49:16.787Z,7.47
2024-05-09T10:52:03.780Z,7.57
2024-05-09T10:54:50.002Z,7.20
2024-05-09T10:57:38.823Z,13.43
2024-05-09T11:00:35.646Z,6.68
2024-05-09T11:03:23.410Z,7.55
2024-05-09T11:06:11.133Z,6.82
2024-05-09T11:08:56.696Z,7.35
2024-05-09T11:11:42.021Z,7.43
2024-05-09T11:14:27.335Z,7.68
2024-05-09T11:17:12.783Z,6.97
2024-05-09T11:19:58.207Z,7.55
2024-05-09T11:22:43.610Z,8.23
2024-05-09T11:25:29.218Z,7.70
2024-05-09T11:28:14.789Z,7.80
2024-05-09T11:31:08.239Z,8.00
2024-05-09T11:33:54.520Z,6.50
2024-05-09T11:36:40.321Z,7.82
2024-05-09T11:39:26.182Z,6.97
2024-05-09T11:42:11.955Z,7.22
2024-05-09T11:44:57.270Z,7.30
2024-05-09T11:47:42.932Z,6.70
2024-05-09T11:50:33.046Z,7.47
2024-05-09T11:53:21.353Z,7.07
2024-05-09T11:56:06.881Z,6.97
2024-05-09T11:58:52.328Z,6.45
2024-05-09T12:01:37.945Z,6.50
2024-05-09T12:04:23.730Z,6.72
2024-05-09T12:07:12.754Z,7.90
2024-05-09T12:09:58.174Z,6.60
2024-05-09T12:12:43.720Z,7.55
2024-05-09T12:15:29.454Z,7.80
2024-05-09T12:18:14.638Z,6.95
2024-05-09T12:21:00.835Z,9.57
2024-05-09T12:23:46.324Z,6.97
2024-05-09T12:26:31.581Z,7.40
2024-05-09T12:29:17.807Z,7.47
2024-05-09T12:32:03.317Z,7.45
2024-05-09T12:34:48.691Z,7.40
2024-05-09T12:37:34.151Z,6.65
2024-05-09T12:40:26.788Z,7.18
2024-05-09T12:43:20.179Z,6.53
2024-05-09T12:46:05.441Z,7.53
2024-05-09T12:48:51.115Z,7.25
2024-05-09T12:51:36.370Z,6.70
2024-05-09T12:54:21.759Z,7.10
2024-05-09T12:57:07.287Z,6.10
2024-05-09T12:59:52.698Z,6.47
2024-05-09T13:02:38.240Z,6.93
2024-05-09T13:05:23.439Z,6.35
2024-05-09T13:08:09.473Z,6.70
2024-05-09T13:10:54.967Z,5.90
2024-05-09T13:13:40.241Z,5.70
2024-05-09T13:16:25.872Z,5.85
2024-05-09T13:19:11.199Z,5.88
2024-05-09T13:21:56.615Z,5.57
2024-05-09T13:24:42.297Z,6.18
2024-05-09T13:27:27.611Z,5.50
2024-05-09T13:30:21.730Z,6.25
2024-05-09T13:33:14.671Z,5.43
2024-05-09T13:36:00.159Z,4.88
2024-05-09T13:38:45.654Z,5.95
2024-05-09T13:41:30.980Z,5.72
2024-05-09T13:44:16.274Z,5.00
2024-05-09T13:47:01.779Z,5.80
2024-05-09T13:49:47.982Z,5.72
2024-05-09T13:52:33.249Z,5.07
2024-05-09T13:55:18.516Z,5.30
2024-05-09T13:58:04.493Z,5.40
2024-05-09T14:00:49.855Z,5.45
2024-05-09T14:03:35.326Z,5.38
2024-05-09T14:06:20.634Z,5.32
2024-05-09T14:09:06.127Z,5.38
2024-05-09T14:11:51.633Z,5.80
2024-05-09T14:14:37.014Z,5.43
2024-05-09T14:17:22.747Z,5.72
2024-05-09T14:20:11.754Z,5.60
2024-05-09T14:23:00.529Z,5.13
2024-05-09T14:25:50.073Z,5.32
2024-05-09T14:28:37.387Z,5.53
2024-05-09T14:31:22.957Z,5.25
2024-05-09T14:34:08.344Z,5.43
2024-05-09T14:36:54.099Z,4.80
2024-05-09T14:39:39.518Z,5.05
2024-05-09T14:42:25.048Z,5.22
2024-05-09T14:45:10.488Z,5.30
2024-05-09T14:47:56.037Z,5.25
2024-05-09T14:50:41.901Z,5.43
2024-05-09T14:53:27.202Z,5.63
2024-05-09T14:56:12.649Z,4.70
2024-05-09T14:58:58.093Z,5.55
2024-05-09T15:01:43.632Z,5.20
2024-05-09T15:04:29.134Z,4.60
2024-05-09T15:07:14.693Z,4.65
2024-05-09T15:10:00.226Z,4.97
2024-05-09T15:12:45.670Z,4.82
2024-05-09T15:15:31.385Z,4.90
2024-05-09T15:18:17.605Z,5.10
2024-05-09T15:21:02.917Z,5.07
2024-05-09T15:23:48.421Z,4.50
2024-05-09T15:26:33.852Z,4.70
2024-05-09T15:29:19.336Z,4.43
2024-05-09T15:32:05.414Z,3.70
2024-05-09T15:34:50.510Z,4.07
2024-05-09T15:37:36.910Z,4.75
2024-05-09T15:40:31.278Z,4.43
2024-05-09T15:43:23.193Z,4.10
2024-05-09T15:46:08.940Z,4.50
2024-05-09T15:48:54.354Z,8.63
2024-05-09T15:51:39.697Z,5.90
2024-05-09T15:54:25.569Z,5.00
2024-05-09T15:57:11.938Z,4.50
2024-05-09T15:59:57.047Z,4.38
2024-05-09T16:02:42.492Z,4.20
2024-05-09T16:05:28.359Z,4.75
2024-05-09T16:08:14.470Z,4.55
2024-05-09T16:11:00.089Z,5.25
2024-05-09T16:13:46.069Z,5.30
2024-05-09T16:16:31.864Z,4.47
2024-05-09T16:19:17.731Z,4.65
2024-05-09T16:22:03.450Z,4.53
2024-05-09T16:24:48.932Z,4.53
2024-05-09T16:27:34.692Z,4.18
2024-05-09T16:30:27.857Z,5.25
2024-05-09T16:33:19.992Z,4.80
2024-05-09T16:36:06.617Z,5.80
2024-05-09T16:38:52.005Z,5.20
2024-05-09T16:41:37.590Z,5.80
2024-05-09T16:44:22.977Z,6.00
2024-05-09T16:47:08.483Z,5.57
2024-05-09T16:49:53.820Z,5.80
2024-05-09T16:52:39.162Z,5.03
2024-05-09T16:55:24.613Z,5.10
2024-05-09T16:58:10.070Z,5.28
2024-05-09T17:00:55.551Z,5.18
2024-05-09T17:03:41.063Z,5.45
2024-05-09T17:06:26.754Z,4.68
2024-05-09T17:09:15.500Z,5.03
2024-05-09T17:12:00.791Z,5.47
2024-05-09T17:14:46.120Z,5.47
2024-05-09T17:17:31.408Z,4.70
2024-05-09T17:20:26.127Z,5.90
2024-05-09T17:23:17.860Z,4.40
2024-05-09T17:26:03.475Z,4.85
2024-05-09T17:28:48.817Z,4.63
2024-05-09T17:31:34.431Z,4.70
2024-05-09T17:34:19.886Z,5.00
2024-05-09T17:37:05.330Z,5.25
2024-05-09T17:39:50.636Z,4.80
2024-05-09T17:42:36.131Z,5.22
2024-05-09T17:45:21.595Z,5.00
2024-05-09T17:48:07.777Z,4.90
2024-05-09T17:50:53.104Z,5.35
2024-05-09T17:53:38.385Z,5.13
2024-05-09T17:56:23.834Z,5.38
2024-05-09T17:59:11.464Z,4.90
2024-05-09T18:01:57.200Z,5.07
2024-05-09T18:04:42.813Z,5.35
2024-05-09T18:07:28.101Z,4.90
2024-05-09T18:10:19.529Z,4.93
2024-05-09T18:13:12.207Z,5.20
2024-05-09T18:15:58.225Z,5.60
2024-05-09T18:18:43.708Z,5.18
2024-05-09T18:21:28.863Z,5.07
2024-05-09T18:24:14.514Z,4.85
2024-05-09T18:26:59.982Z,5.28
2024-05-09T18:29:45.459Z,5.35
2024-05-09T18:32:30.990Z,5.50
2024-05-09T18:35:16.301Z,5.40
2024-05-09T18:38:02.183Z,5.88
2024-05-09T18:40:49.228Z,5.78
2024-05-09T18:43:41.976Z,6.53
2024-05-09T18:46:30.352Z,5.82
2024-05-09T18:49:15.904Z,6.05
2024-05-09T18:52:01.627Z,6.15
2024-05-09T18:54:47.154Z,6.22
2024-05-09T18:57:32.646Z,6.10
2024-05-09T19:00:30.907Z,7.05
2024-05-09T19:03:20.752Z,6.80
2024-05-09T19:06:06.099Z,6.78
2024-05-09T19:08:51.184Z,6.53
2024-05-09T19:11:36.878Z,6.68
2024-05-09T19:14:22.122Z,6.35
2024-05-09T19:17:07.704Z,7.00
2024-05-09T19:19:53.107Z,7.20
2024-05-09T19:22:38.433Z,7.07
2024-05-09T19:25:24.074Z,7.10
2024-05-09T19:28:09.521Z,7.40
2024-05-09T19:30:54.943Z,7.20
2024-05-09T19:33:40.304Z,7.10
2024-05-09T19:36:25.712Z,7.60
2024-05-09T19:39:11.183Z,7.78
2024-05-09T19:41:56.601Z,8.10
2024-05-09T19:44:42.124Z,8.35
2024-05-09T19:47:27.634Z,8.32
2024-05-09T19:50:19.540Z,9.05
2024-05-09T19:53:08.859Z,10.30
2024-05-09T19:55:54.145Z,11.45
2024-05-09T19:58:39.588Z,10.35
2024-05-09T20:01:25.076Z,9.68
2024-05-09T20:04:10.395Z,9.85
2024-05-09T20:06:55.746Z,9.10
2024-05-09T20:09:41.239Z,9.02
2024-05-09T20:12:26.432Z,9.25
2024-05-09T20:15:12.102Z,9.40
2024-05-09T20:17:57.561Z,9.65
2024-05-09T20:20:44.962Z,10.27
2024-05-09T20:23:30.556Z,9.40
2024-05-09T20:26:15.688Z,9.13
2024-05-09T20:29:01.581Z,10.07
2024-05-09T20:31:46.983Z,10.15
2024-05-09T20:34:32.341Z,10.25
2024-05-09T20:37:17.986Z,11.45
2024-05-09T20:40:05.067Z,12.52
2024-05-09T20:42:52.467Z,11.77
2024-05-09T20:45:38.120Z,11.63
2024-05-09T20:48:23.829Z,13.77
2024-05-09T20:51:09.788Z,13.38
2024-05-09T20:53:55.000Z,12.90
2024-05-09T20:56:40.320Z,13.02
2024-05-09T20:59:25.797Z,13.25
2024-05-09T21:02:11.339Z,12.52
2024-05-09T21:04:56.841Z,12.55
2024-05-09T21:07:42.242Z,14.23
2024-05-09T21:10:32.113Z,13.68
2024-05-09T21:13:18.776Z,13.13
2024-05-09T21:16:05.147Z,12.93
2024-05-09T21:18:50.364Z,13.82
2024-05-09T21:21:40.164Z,14.32
2024-05-09T21:24:25.216Z,15.30
2024-05-09T21:27:10.413Z,14.38
2024-05-09T21:29:55.886Z,15.32
2024-05-09T21:32:41.361Z,15.57
2024-05-09T21:35:26.903Z,15.73
2024-05-09T21:38:13.078Z,16.35
2024-05-09T21:40:58.700Z,15.45
2024-05-09T21:43:43.955Z,16.60
2024-05-09T21:46:29.571Z,16.00
2024-05-09T21:49:14.760Z,15.27
2024-05-09T21:52:00.018Z,15.30
2024-05-09T21:54:46.449Z,14.73
2024-05-09T21:57:31.625Z,14.57
2024-05-09T22:00:28.375Z,14.75
2024-05-09T22:03:20.647Z,15.75
2024-05-09T22:06:06.063Z,16.65
2024-05-09T22:08:51.432Z,16.15
2024-05-09T22:11:36.935Z,16.15
2024-05-09T22:14:22.291Z,16.88
2024-05-09T22:17:07.812Z,16.38
2024-05-09T22:19:53.275Z,17.30
2024-05-09T22:22:38.688Z,16.77
2024-05-09T22:25:26.071Z,16.75
2024-05-09T22:28:14.845Z,17.92
2024-05-09T22:31:00.186Z,16.98
2024-05-09T22:33:48.154Z,18.63
2024-05-09T22:36:33.882Z,19.38
2024-05-09T22:39:19.166Z,18.55
2024-05-09T22:42:04.701Z,17.55
2024-05-09T22:44:49.884Z,18.25
2024-05-09T22:47:35.561Z,16.75
2024-05-09T22:50:26.755Z,16.58
2024-05-09T22:53:16.206Z,16.85
2024-05-09T22:56:01.595Z,19.05
2024-05-09T22:58:46.978Z,18.38
2024-05-09T23:01:32.224Z,18.35
2024-05-09T23:04:17.959Z,17.65
2024-05-09T23:07:03.565Z,17.58
2024-05-09T23:09:48.959Z,18.48
2024-05-09T23:12:34.476Z,17.73
2024-05-09T23:15:20.053Z,19.55
2024-05-09T23:18:06.093Z,19.77
2024-05-09T23:20:51.444Z,19.27
2024-05-09T23:23:36.759Z,19.58
2024-05-09T23:26:22.232Z,19.67
2024-05-09T23:29:07.715Z,20.30
2024-05-09T23:31:53.112Z,20.45
2024-05-09T23:34:38.474Z,20.67
2024-05-09T23:37:23.528Z,21.33
2024-05-09T23:40:09.782Z,20.92
2024-05-09T23:42:55.217Z,21.02
2024-05-09T23:45:41.338Z,19.52
2024-05-09T23:48:26.754Z,20.70
2024-05-09T23:51:11.712Z,22.33
2024-05-09T23:53:57.153Z,23.48
2024-05-09T23:56:42.559Z,23.17
2024-05-09T23:59:28.043Z,22.88
